Flight Track Log - Related Links

Times and Time Zones

All times are in EDT time to prevent confusion due to time zone crossing. See the TYR394 flight status page for this flight to view local times or setup timezone preferences in your user account.

Time Position Orientation Groundspeed Altitude Reporting Facility
EDT Latitude Longitude Course Direction KTS MPH feet Rate Location/Type
Fri 02:45:00 PM 42.3279 3.8579 52° Northeast  Level Estimated
Fri 02:46:00 PM 42.3957 3.9786 53° Northeast  Level Estimated
Fri 02:47:00 PM 42.4633 4.0995 53° Northeast  Level Estimated
Fri 02:48:00 PM 42.5308 4.2207 53° Northeast  Level Estimated
Fri 02:49:00 PM 42.5981 4.3422 53° Northeast  Level Estimated
Fri 02:50:00 PM 42.6654 4.4639 53° Northeast  Level Estimated
Fri 02:51:00 PM 42.7324 4.5859 53° Northeast  Level Estimated
Fri 02:52:00 PM 42.7994 4.7082 53° Northeast  Level Estimated
Fri 02:53:00 PM 42.8663 4.8307 53° Northeast  Level Estimated
Fri 02:54:00 PM 42.9330 4.9535 53° Northeast  Level Estimated
Fri 02:55:00 PM 42.9995 5.0765 53° Northeast  Level Estimated
Fri 02:56:00 PM 43.0660 5.1999 54° Northeast  Level Estimated
Fri 02:57:00 PM 43.1323 5.3234 54° Northeast  Level Estimated
Fri 02:58:00 PM 43.1985 5.4473 54° Northeast  Level Estimated
Fri 02:59:00 PM 43.2645 5.5714 54° Northeast  Level Estimated
Fri 03:00:00 PM 43.3304 5.6958 54° Northeast  Level Estimated
Fri 03:01:00 PM 43.3962 5.8205 54° Northeast  Level Estimated
Fri 03:02:00 PM 43.4618 5.9454 54° Northeast  Level Estimated
Fri 03:03:00 PM 43.5273 6.0706 54° Northeast  Level Estimated
Fri 03:04:00 PM 43.5927 6.1961 54° Northeast  Level Estimated
Fri 03:05:00 PM 43.6579 6.3218 54° Northeast  Level Estimated
Fri 03:06:00 PM 43.7230 6.4478 54° Northeast  Level Estimated
Fri 03:07:00 PM 43.7879 6.5741 55° Northeast  Level Estimated
Fri 03:08:00 PM 43.8528 6.7007 55° Northeast  Level Estimated
Fri 03:09:00 PM 43.9174 6.8275 55° Northeast  Level Estimated
Fri 03:10:00 PM 43.9820 6.9547 55° Northeast  Level Estimated
Fri 03:11:00 PM 44.0463 7.0821 55° Northeast  Level Estimated
Fri 03:12:00 PM 44.1106 7.2097 55° Northeast  Level Estimated
Fri 03:13:00 PM 44.1747 7.3377 55° Northeast  Level Estimated
Fri 03:14:00 PM 44.2387 7.4659 55° Northeast  Level Estimated
Fri 03:15:00 PM 44.3025 7.5944 55° Northeast  Level Estimated
Fri 03:16:00 PM 44.3661 7.7232 55° Northeast  Level Estimated
Fri 03:17:00 PM 44.4297 7.8523 55° Northeast  Level Estimated
Fri 03:18:00 PM 44.4930 7.9816 55° Northeast  Level Estimated
Fri 03:19:00 PM 44.5563 8.1113 56° Northeast  Level Estimated
Fri 03:20:00 PM 44.6194 8.2412 56° Northeast  Level Estimated
Fri 03:21:00 PM 44.6823 8.3714 56° Northeast  Level Estimated
Fri 03:22:00 PM 44.7451 8.5018 56° Northeast  Level Estimated
Fri 03:23:00 PM 44.8077 8.6326 56° Northeast  Level Estimated
Fri 03:24:00 PM 44.8702 8.7636 56° Northeast  Level Estimated
Fri 03:25:00 PM 44.9326 8.8950 56° Northeast  Level Estimated
Fri 03:26:00 PM 44.9948 9.0266 56° Northeast  Level Estimated
Fri 03:27:00 PM 45.0568 9.1585 56° Northeast  Level Estimated
Fri 03:28:00 PM 45.1187 9.2907 56° Northeast  Level Estimated
Fri 03:29:00 PM 45.1804 9.4231 56° Northeast  Level Estimated
Fri 03:30:00 PM 45.2420 9.5559 57° Northeast  Level Estimated
Fri 03:31:00 PM 45.3034 9.6889 57° Northeast  Level Estimated
Fri 03:32:00 PM 45.3647 9.8223 57° Northeast  Level Estimated
Fri 03:33:00 PM 45.4258 9.9559 57° Northeast  Level Estimated
Fri 03:34:00 PM 45.4868 10.0898 57° Northeast  Level Estimated
Fri 03:35:00 PM 45.5476 10.2240 57° Northeast  Level Estimated
Fri 03:36:00 PM 45.6082 10.3585 57° Northeast  Level Estimated
Fri 03:37:00 PM 45.6687 10.4933 57° Northeast  Level Estimated
Fri 03:38:00 PM 45.7291 10.6283 57° Northeast  Level Estimated
Fri 03:39:00 PM 45.7892 10.7637 57° Northeast  Level Estimated
Fri 03:40:00 PM 45.8492 10.8994 58° Northeast  Level Estimated
Fri 03:41:00 PM 45.9091 11.0353 58° Northeast  Level Estimated
Fri 03:42:00 PM 45.9688 11.1716 58° Northeast  Level Estimated
Fri 03:43:00 PM 46.0283 11.3081 58° Northeast  Level Estimated
Fri 03:44:00 PM 46.0877 11.4449 58° Northeast  Level Estimated
Fri 03:45:00 PM 46.1469 11.5821 58° Northeast  Level Estimated
Fri 03:46:00 PM 46.2059 11.7195 58° Northeast  Level Estimated
Fri 03:47:00 PM 46.2648 11.8572 58° Northeast  Level Estimated
Fri 03:48:00 PM 46.3235 11.9952 58° Northeast  Level Estimated
Fri 03:49:00 PM 46.3820 12.1335 58° Northeast  Level Estimated
Fri 03:50:00 PM 46.4404 12.2721 59° Northeast  Level Estimated
Fri 03:51:00 PM 46.4986 12.4110 59° Northeast  Level Estimated
Fri 03:52:00 PM 46.5566 12.5502 59° Northeast  Level Estimated
Fri 03:53:00 PM 46.6145 12.6897 59° Northeast  Level Estimated
Fri 03:54:00 PM 46.6722 12.8295 59° Northeast  Level Estimated
Fri 03:55:00 PM 46.7297 12.9696 59° Northeast  Level Estimated
Fri 03:56:00 PM 46.7871 13.1100 59° Northeast  Level Estimated
Fri 03:57:00 PM 46.8442 13.2507 59° Northeast  Level Estimated
Fri 03:58:00 PM 46.9012 13.3917 59° Northeast  Level Estimated
Fri 03:59:00 PM 46.9581 13.5330 59° Northeast  Level Estimated
Fri 04:00:00 PM 47.0148 13.6746 60° Northeast  Level Estimated
Fri 04:01:00 PM 47.0712 13.8164 60° Northeast  Level Estimated
Fri 04:02:00 PM 47.1275 13.9586 60° Northeast  Level Estimated
Fri 04:03:00 PM 47.1837 14.1011 60° Northeast  Level Estimated
Fri 04:04:00 PM 47.2396 14.2439 60° Northeast  Level Estimated
Fri 04:05:00 PM 47.2954 14.3870 60° Northeast  Level Estimated
Fri 04:06:00 PM 47.3510 14.5304 60° Northeast  Level Estimated
Fri 04:07:00 PM 47.4064 14.6741 60° Northeast  Level Estimated
Fri 04:08:00 PM 47.4617 14.8181 60° Northeast  Level Estimated
Fri 04:09:00 PM 47.5167 14.9624 60° Northeast  Level Estimated
Fri 04:10:00 PM 47.5716 15.1070 61° Northeast  Level Estimated
Fri 04:11:00 PM 47.6263 15.2519 61° Northeast  Level Estimated
Fri 04:12:00 PM 47.6808 15.3971 61° Northeast  Level Estimated
Fri 04:13:00 PM 47.7352 15.5426 61° Northeast  Level Estimated
Fri 04:14:00 PM 47.7893 15.6884 61° Northeast  Level Estimated
Fri 04:15:00 PM 47.8433 15.8346 61° Northeast  Level Estimated
Fri 04:16:00 PM 47.8971 15.9810 61° Northeast  Level Estimated
Fri 04:17:00 PM 47.9506 16.1277 61° Northeast  Level Estimated
Fri 04:18:00 PM 48.0041 16.2748 61° Northeast  Level Estimated
Fri 04:19:00 PM 48.0573 16.4221 62° Northeast  Level Estimated
Fri 04:20:00 PM 48.1103 16.5697 62° Northeast  Level Estimated
Fri 04:21:00 PM 48.1103 16.5697 146° Southeast  Level Estimated
Fri 04:22:00 PM 48.1103 16.5697 146° Southeast  Level Estimated
Fri 04:23:00 PM 48.1103 16.5697 146° Southeast  Level Estimated
Fri 04:24:00 PM 48.1103 16.5697 146° Southeast  Level Estimated
Fri 04:25:00 PM 48.1103 16.5697 146° Southeast  Level Estimated
Fri 04:26:00 PM 48.1103 16.5697 146° Southeast  Level Estimated
Fri 04:27:00 PM 48.1103 16.5697 146° Southeast  Level Estimated
Fri 04:28:00 PM 48.1103 16.5697 146° Southeast  Level Estimated
Fri 04:29:00 PM 48.1103 16.5697 146° Southeast  Level Estimated

Login

Don't have an account? Register now (free) for customized features, flight alerts, and more!